Terminal Aerodrome Forecast
Issued by NWS

Home | Current Version | Previous Version | Text Only | Print | Product List | Glossary On
Versions: 1 2 3 4 5 6 7 8 9 10 11 12 13 14 15
602
FTUS43 KGRB 251726
TAFATW
TAF
KATW 251726Z 2518/2618 30010G15KT P6SM SCT040
     FM260000 27005KT P6SM SKC
     FM260400 VRB02KT P6SM SKC
      TEMPO 2608/2612 4SM BR
     FM261500 24006KT P6SM FEW035=

USA.gov is the U.S. government's official web portal to all federal, state and local government web resources and services.